Lamy, New Mexico
Current Conditions -  °F | °C
As of 12:53 AM on Friday 24 Oct 2014 (Local Time) from KSAF Reporting Station
Clear Clear  
Wind Chill: 11°   Ceiling: Unl
Heat Index: 11°   Visibility: 10mi
Dew Point: -1°   Wind: 9mph
Humidity: 44%   Direction: 350°N
Pressure: 30.31"   Gusts: NA
Location:  35.48°N, 105.88°W
Report Text: KSAF 240653Z AUTO 35008KT 10SM CLR 11/M01 A3031 RMK AO2 SLP185 T01061011 402220044
Loading
Personal Weather Stations






























Interactive Weather Map
Tropical Storm Tracking
New forecast layout! Learn more

10-Day Weather Forecast

Advertisements
Track Severe Weather on mobile